createdAt,value
2022-12-19T00:00:31.318Z,15.47
2022-12-19T00:02:59.476Z,15.63
2022-12-19T00:05:27.786Z,18.43
2022-12-19T00:07:55.750Z,12.70
2022-12-19T00:10:25.280Z,13.57
2022-12-19T00:12:53.334Z,11.27
2022-12-19T00:15:22.694Z,17.37
2022-12-19T00:17:50.778Z,12.10
2022-12-19T00:20:19.197Z,17.77
2022-12-19T00:22:47.401Z,19.33
2022-12-19T00:25:18.294Z,17.27
2022-12-19T00:27:47.201Z,17.07
2022-12-19T00:30:15.608Z,11.80
2022-12-19T00:32:45.552Z,16.13
2022-12-19T00:35:13.544Z,14.40
2022-12-19T00:37:49.323Z,16.57
2022-12-19T00:40:17.781Z,15.73
2022-12-19T00:42:51.712Z,18.13
2022-12-19T00:45:21.564Z,13.43
2022-12-19T00:47:51.344Z,14.50
2022-12-19T00:50:19.603Z,12.30
2022-12-19T00:52:47.625Z,16.07
2022-12-19T00:55:19.359Z,14.80
2022-12-19T00:57:48.381Z,11.40
2022-12-19T01:00:18.185Z,13.97
2022-12-19T01:02:46.420Z,13.07
2022-12-19T01:05:16.274Z,11.90
2022-12-19T01:07:44.295Z,14.63
2022-12-19T01:10:12.509Z,12.97
2022-12-19T01:12:48.746Z,11.00
2022-12-19T01:15:20.857Z,13.90
2022-12-19T01:17:49.723Z,13.07
2022-12-19T01:20:29.756Z,17.03
2022-12-19T01:23:00.308Z,11.67
2022-12-19T01:25:29.643Z,12.87
2022-12-19T01:27:58.034Z,9.90
2022-12-19T01:30:26.503Z,10.63
2022-12-19T01:32:56.869Z,12.50
2022-12-19T01:35:27.248Z,10.53
2022-12-19T01:37:57.500Z,9.47
2022-12-19T01:40:37.341Z,12.20
2022-12-19T01:43:06.303Z,11.90
2022-12-19T01:45:38.407Z,12.10
2022-12-19T01:48:19.274Z,11.43
2022-12-19T01:51:02.078Z,10.37
2022-12-19T01:53:34.536Z,11.17
2022-12-19T01:56:10.472Z,11.37
2022-12-19T01:58:42.507Z,14.20
2022-12-19T02:01:11.056Z,10.27
2022-12-19T02:03:40.768Z,14.03
2022-12-19T02:06:11.341Z,11.77
2022-12-19T02:08:41.144Z,13.67
2022-12-19T02:11:09.141Z,10.07
2022-12-19T02:13:39.490Z,12.10
2022-12-19T02:16:17.785Z,10.60
2022-12-19T02:18:55.918Z,14.37
2022-12-19T02:21:32.315Z,12.27
2022-12-19T02:24:30.411Z,13.17
2022-12-19T02:27:40.384Z,12.13
2022-12-19T02:30:14.634Z,10.30
2022-12-19T02:32:57.107Z,11.77
2022-12-19T02:35:32.221Z,9.73
2022-12-19T02:38:12.231Z,11.40
2022-12-19T02:40:45.622Z,10.30
2022-12-19T02:43:17.114Z,12.90
2022-12-19T02:45:47.669Z,9.50
2022-12-19T02:48:19.431Z,11.10
2022-12-19T02:50:50.527Z,11.07
2022-12-19T02:53:22.433Z,11.53
2022-12-19T02:56:10.419Z,12.50
2022-12-19T02:58:51.400Z,11.47
2022-12-19T03:01:33.485Z,10.43
2022-12-19T03:04:15.953Z,12.47
2022-12-19T03:06:49.481Z,7.80
2022-12-19T03:09:22.936Z,9.47
2022-12-19T03:11:56.042Z,10.97
2022-12-19T03:14:24.962Z,10.83
2022-12-19T03:16:53.390Z,11.83
2022-12-19T03:19:24.019Z,11.20
2022-12-19T03:21:52.973Z,11.63
2022-12-19T03:24:21.608Z,10.17
2022-12-19T03:26:55.796Z,10.73
2022-12-19T03:29:29.517Z,9.97
2022-12-19T03:32:00.599Z,11.23
2022-12-19T03:34:33.049Z,9.43
2022-12-19T03:37:04.351Z,8.03
2022-12-19T03:39:33.831Z,11.07
2022-12-19T03:42:21.211Z,9.70
2022-12-19T03:44:52.175Z,11.37
2022-12-19T03:47:25.124Z,10.40
2022-12-19T03:49:54.926Z,9.77
2022-12-19T03:52:29.626Z,11.57
2022-12-19T03:55:05.537Z,9.40
2022-12-19T03:57:39.037Z,9.37
2022-12-19T04:00:09.915Z,10.67
2022-12-19T04:02:40.108Z,12.63
2022-12-19T04:05:12.751Z,9.63
2022-12-19T04:07:41.897Z,11.03
2022-12-19T04:10:13.180Z,9.90
2022-12-19T04:12:48.632Z,11.80
2022-12-19T04:15:17.425Z,11.50
2022-12-19T04:17:50.364Z,12.63
2022-12-19T04:20:22.477Z,9.90
2022-12-19T04:22:55.233Z,13.93
2022-12-19T04:25:29.630Z,9.17
2022-12-19T04:28:04.256Z,9.80
2022-12-19T04:30:36.773Z,8.93
2022-12-19T04:33:05.508Z,12.30
2022-12-19T04:35:38.130Z,10.00
2022-12-19T04:38:06.171Z,10.27
2022-12-19T04:40:40.821Z,9.73
2022-12-19T04:43:10.063Z,9.47
2022-12-19T04:45:38.283Z,7.47
2022-12-19T04:48:07.643Z,8.93
2022-12-19T04:50:38.572Z,11.80
2022-12-19T04:53:07.956Z,8.77
2022-12-19T04:55:36.194Z,7.83
2022-12-19T04:58:06.262Z,10.40
2022-12-19T05:00:34.836Z,12.13
2022-12-19T05:03:03.078Z,8.93
2022-12-19T05:05:31.232Z,10.77
2022-12-19T05:08:01.077Z,10.53
2022-12-19T05:10:29.361Z,10.13
2022-12-19T05:12:57.410Z,11.93
2022-12-19T05:15:25.414Z,11.57
2022-12-19T05:17:53.474Z,7.63
2022-12-19T05:20:21.531Z,9.03
2022-12-19T05:22:49.628Z,8.50
2022-12-19T05:25:19.543Z,9.83
2022-12-19T05:27:47.582Z,11.10
2022-12-19T05:30:15.900Z,10.17
2022-12-19T05:32:43.957Z,10.57
2022-12-19T05:35:12.314Z,8.77
2022-12-19T05:37:40.326Z,9.13
2022-12-19T05:40:10.629Z,9.80
2022-12-19T05:42:40.067Z,10.17
2022-12-19T05:45:09.545Z,10.77
2022-12-19T05:47:38.181Z,10.83
2022-12-19T05:50:07.063Z,11.33
2022-12-19T05:52:35.093Z,10.87
2022-12-19T05:55:03.233Z,8.50
2022-12-19T05:57:31.253Z,10.47
2022-12-19T06:00:00.985Z,7.10
2022-12-19T06:02:32.933Z,12.53
2022-12-19T06:05:01.311Z,8.67
2022-12-19T06:07:29.915Z,10.23
2022-12-19T06:09:58.346Z,10.43
2022-12-19T06:12:26.407Z,9.70
2022-12-19T06:14:54.812Z,8.63
2022-12-19T06:17:24.684Z,11.20
2022-12-19T06:19:52.699Z,9.47
2022-12-19T06:22:20.727Z,10.13
2022-12-19T06:24:48.801Z,10.00
2022-12-19T06:27:17.029Z,11.43
2022-12-19T06:29:45.027Z,8.97
2022-12-19T06:32:13.074Z,8.90
2022-12-19T06:37:30.846Z,7.80
2022-12-19T06:39:59.278Z,10.80
2022-12-19T06:42:26.548Z,9.83
2022-12-19T06:44:56.484Z,9.50
2022-12-19T06:47:25.624Z,10.53
2022-12-19T06:49:55.359Z,9.87
2022-12-19T06:52:23.431Z,8.32
2022-12-19T06:54:51.761Z,10.07
2022-12-19T06:57:19.908Z,9.95
2022-12-19T06:59:47.994Z,11.63
2022-12-19T07:02:26.481Z,10.43
2022-12-19T07:05:02.970Z,9.67
2022-12-19T07:07:31.644Z,11.00
2022-12-19T07:10:00.227Z,10.83
2022-12-19T07:12:28.244Z,9.50
2022-12-19T07:14:56.328Z,9.53
2022-12-19T07:17:25.472Z,9.00
2022-12-19T07:19:55.508Z,10.65
2022-12-19T07:22:26.117Z,12.63
2022-12-19T07:24:55.241Z,9.25
2022-12-19T07:27:23.629Z,11.68
2022-12-19T07:29:51.694Z,11.37
2022-12-19T07:32:19.694Z,8.73
2022-12-19T07:34:48.064Z,11.17
2022-12-19T07:37:16.459Z,9.53
2022-12-19T07:39:46.298Z,9.77
2022-12-19T07:42:14.656Z,9.48
2022-12-19T07:44:42.727Z,13.13
2022-12-19T07:47:11.149Z,11.65
2022-12-19T07:49:39.393Z,12.25
2022-12-19T07:52:08.491Z,12.20
2022-12-19T07:54:36.999Z,12.80
2022-12-19T07:57:06.446Z,13.45
2022-12-19T07:59:38.881Z,10.32
2022-12-19T08:02:08.015Z,17.37
2022-12-19T08:04:36.805Z,16.98
2022-12-19T08:07:05.184Z,17.75
2022-12-19T08:09:33.492Z,15.83
2022-12-19T08:12:01.486Z,14.13
2022-12-19T08:14:30.883Z,16.30
2022-12-19T08:19:47.169Z,13.50
2022-12-19T08:22:15.380Z,21.92
2022-12-19T08:24:43.488Z,15.10
2022-12-19T08:27:11.890Z,14.95
2022-12-19T08:29:41.317Z,15.95
2022-12-19T08:32:09.372Z,18.58
2022-12-19T08:34:37.389Z,16.60
2022-12-19T08:37:05.809Z,20.73
2022-12-19T08:39:33.837Z,15.40
2022-12-19T08:42:02.960Z,19.58
2022-12-19T08:44:31.046Z,17.77
2022-12-19T08:47:00.959Z,17.83
2022-12-19T08:49:29.384Z,15.65
2022-12-19T08:51:57.413Z,17.60
2022-12-19T08:54:25.527Z,19.08
2022-12-19T08:56:53.591Z,15.68
2022-12-19T08:59:26.809Z,17.27
2022-12-19T09:02:02.228Z,17.15
2022-12-19T09:06:01.765Z,17.58
2022-12-19T09:07:19.424Z,18.65
2022-12-19T09:09:47.488Z,18.63
2022-12-19T09:12:17.486Z,19.33
2022-12-19T09:14:45.643Z,16.55
2022-12-19T09:17:15.101Z,16.63
2022-12-19T09:19:44.145Z,16.58
2022-12-19T09:22:16.611Z,18.58
2022-12-19T09:24:44.692Z,13.05
2022-12-19T09:27:12.803Z,13.88
2022-12-19T09:29:42.590Z,14.88
2022-12-19T09:32:10.696Z,17.83
2022-12-19T09:34:40.091Z,18.13
2022-12-19T09:37:16.178Z,19.13
2022-12-19T09:39:46.318Z,17.38
2022-12-19T09:42:46.863Z,13.27
2022-12-19T09:45:31.821Z,21.92
2022-12-19T09:48:02.918Z,18.73
2022-12-19T09:50:43.278Z,25.45
2022-12-19T09:53:18.862Z,18.05
2022-12-19T09:55:48.913Z,14.82
2022-12-19T09:58:27.950Z,15.10
2022-12-19T10:01:00.102Z,19.23
2022-12-19T10:03:32.342Z,16.58
2022-12-19T10:07:13.981Z,22.65
2022-12-19T10:10:55.527Z,17.30
2022-12-19T10:12:38.176Z,20.25
2022-12-19T10:15:18.953Z,17.05
2022-12-19T10:18:12.815Z,16.67
2022-12-19T10:20:46.196Z,18.45
2022-12-19T10:23:29.497Z,22.85
2022-12-19T10:26:01.342Z,18.90
2022-12-19T10:28:47.758Z,16.88
2022-12-19T10:31:22.234Z,20.63
2022-12-19T10:33:57.352Z,12.30
2022-12-19T10:36:48.621Z,14.07
2022-12-19T10:39:22.209Z,18.02
2022-12-19T10:41:55.732Z,17.85
2022-12-19T10:44:27.978Z,17.23
2022-12-19T10:46:56.088Z,21.73
2022-12-19T10:49:27.679Z,16.83
2022-12-19T10:52:00.737Z,14.98
2022-12-19T10:54:41.933Z,16.85
2022-12-19T10:57:25.333Z,17.50
2022-12-19T10:59:59.226Z,18.02
2022-12-19T11:02:42.125Z,19.80
2022-12-19T11:05:25.300Z,19.35
2022-12-19T11:08:03.296Z,17.95
2022-12-19T11:13:17.614Z,20.33
2022-12-19T11:18:38.520Z,16.13
2022-12-19T11:24:30.048Z,12.70
2022-12-19T11:29:27.535Z,11.30
2022-12-19T11:30:09.324Z,14.07
2022-12-19T11:30:21.353Z,15.23
2022-12-19T11:30:35.951Z,15.63
2022-12-19T11:34:05.541Z,15.13
2022-12-19T11:36:38.624Z,12.95
2022-12-19T11:39:13.575Z,15.13
2022-12-19T11:41:48.006Z,10.60
2022-12-19T11:44:27.769Z,14.90
2022-12-19T11:47:04.406Z,13.57
2022-12-19T11:49:38.296Z,15.88
2022-12-19T11:52:54.086Z,13.57
2022-12-19T11:55:09.117Z,12.43
2022-12-19T11:57:39.504Z,17.33
2022-12-19T12:00:14.311Z,18.23
2022-12-19T12:03:08.248Z,13.07
2022-12-19T12:05:44.924Z,13.82
2022-12-19T12:11:29.961Z,15.50
2022-12-19T12:16:33.654Z,16.80
2022-12-19T12:24:11.514Z,16.75
2022-12-19T12:31:01.330Z,17.15
2022-12-19T12:31:07.690Z,15.93
2022-12-19T12:31:16.640Z,17.40
2022-12-19T12:31:45.126Z,15.45
2022-12-19T12:31:52.579Z,17.55
2022-12-19T12:35:34.427Z,14.13
2022-12-19T12:38:35.218Z,16.30
2022-12-19T12:41:18.159Z,12.98
2022-12-19T12:43:57.626Z,14.35
2022-12-19T12:46:30.112Z,17.55
2022-12-19T12:49:03.959Z,14.30
2022-12-19T12:51:34.646Z,14.20
2022-12-19T12:54:07.988Z,18.10
2022-12-19T12:56:37.758Z,9.13
2022-12-19T12:59:21.112Z,13.38
2022-12-19T13:01:54.672Z,14.63
2022-12-19T13:04:31.697Z,12.07
2022-12-19T13:07:21.292Z,9.70
2022-12-19T13:09:56.068Z,5.80
2022-12-19T13:12:45.178Z,10.02
2022-12-19T13:15:41.449Z,10.13
2022-12-19T13:18:34.394Z,10.43
2022-12-19T13:21:08.669Z,9.82
2022-12-19T13:24:15.901Z,9.40
2022-12-19T13:26:52.708Z,12.07
2022-12-19T13:29:30.058Z,15.18
2022-12-19T13:32:15.932Z,8.40
2022-12-19T13:35:36.873Z,11.02
2022-12-19T13:39:48.418Z,11.90
2022-12-19T13:40:56.674Z,10.93
2022-12-19T13:43:48.308Z,14.10
2022-12-19T13:46:33.752Z,9.35
2022-12-19T13:49:07.307Z,16.42
2022-12-19T13:51:48.795Z,12.25
2022-12-19T13:54:26.922Z,12.35
2022-12-19T13:56:57.187Z,10.50
2022-12-19T13:59:28.140Z,10.88
2022-12-19T14:01:56.768Z,12.50
2022-12-19T14:04:30.431Z,16.08
2022-12-19T14:07:02.391Z,14.45
2022-12-19T14:11:27.066Z,10.35
2022-12-19T14:13:54.869Z,11.88
2022-12-19T14:15:45.883Z,11.82
2022-12-19T14:18:44.776Z,15.07
2022-12-19T14:22:04.313Z,19.42
2022-12-19T14:24:12.850Z,16.17
2022-12-19T14:28:25.153Z,14.18
2022-12-19T14:30:28.572Z,18.42
2022-12-19T14:33:44.637Z,16.52
2022-12-19T14:36:12.464Z,16.05
2022-12-19T14:39:24.875Z,14.60
2022-12-19T14:41:09.562Z,11.05
2022-12-19T14:43:58.988Z,15.13
2022-12-19T14:53:52.729Z,12.93
2022-12-19T14:54:10.123Z,10.82
2022-12-19T14:54:40.045Z,14.52
2022-12-19T14:56:16.161Z,12.48
2022-12-19T14:58:55.710Z,15.48
2022-12-19T15:01:24.983Z,14.65
2022-12-19T15:04:53.256Z,12.95
2022-12-19T15:07:07.750Z,14.18
2022-12-19T15:10:58.826Z,12.15
2022-12-19T15:14:49.312Z,15.80
2022-12-19T15:15:46.039Z,13.70
2022-12-19T15:18:25.150Z,7.88
2022-12-19T15:20:55.857Z,14.02
2022-12-19T15:23:24.703Z,12.73
2022-12-19T15:26:09.492Z,14.30
2022-12-19T15:28:43.262Z,6.97
2022-12-19T15:31:29.859Z,13.77
2022-12-19T15:34:34.278Z,16.52
2022-12-19T15:36:47.989Z,15.48
2022-12-19T15:39:16.523Z,13.88
2022-12-19T15:41:46.206Z,11.80
2022-12-19T15:44:19.297Z,11.15
2022-12-19T15:46:49.374Z,12.02
2022-12-19T15:49:21.811Z,10.63
2022-12-19T15:51:52.394Z,12.40
2022-12-19T15:57:21.050Z,15.38
2022-12-19T15:59:49.571Z,14.05
2022-12-19T16:02:21.459Z,13.43
2022-12-19T16:04:56.880Z,11.93
2022-12-19T16:07:30.824Z,13.40
2022-12-19T16:09:58.902Z,5.07
2022-12-19T16:12:35.664Z,12.48
2022-12-19T16:15:05.187Z,14.07
2022-12-19T16:17:34.393Z,10.43
2022-12-19T16:20:03.917Z,14.40
2022-12-19T16:22:32.119Z,12.50
2022-12-19T16:25:00.211Z,15.88
2022-12-19T16:27:30.106Z,14.27
2022-12-19T16:30:04.189Z,12.20
2022-12-19T16:32:32.388Z,12.15
2022-12-19T16:35:00.433Z,1.30
2022-12-19T16:37:32.379Z,10.25
2022-12-19T16:40:02.371Z,14.77
2022-12-19T16:42:31.393Z,12.27
2022-12-19T16:44:59.602Z,14.63
2022-12-19T16:47:27.780Z,12.95
2022-12-19T16:49:56.279Z,7.20
2022-12-19T16:52:24.881Z,12.98
2022-12-19T16:54:54.625Z,9.00
2022-12-19T16:57:23.809Z,12.93
2022-12-19T16:59:52.247Z,12.13
2022-12-19T17:02:43.697Z,9.68
2022-12-19T17:05:21.191Z,12.38
2022-12-19T17:07:50.278Z,10.43
2022-12-19T17:10:26.177Z,6.25
2022-12-19T17:12:55.759Z,5.57
2022-12-19T17:15:27.715Z,9.98
2022-12-19T17:17:58.786Z,9.13
2022-12-19T17:20:29.738Z,6.30
2022-12-19T17:22:58.080Z,9.50
2022-12-19T17:25:28.852Z,10.27
2022-12-19T17:27:57.505Z,8.55
2022-12-19T17:30:26.043Z,9.90
2022-12-19T17:32:55.950Z,8.90
2022-12-19T17:35:33.182Z,4.80
2022-12-19T17:38:01.525Z,4.15
2022-12-19T17:40:34.493Z,7.05
2022-12-19T17:43:03.435Z,7.40
2022-12-19T17:45:33.959Z,6.65
2022-12-19T17:48:05.806Z,9.95
2022-12-19T17:50:41.371Z,8.50
2022-12-19T17:53:14.326Z,7.60
2022-12-19T17:55:44.202Z,10.13
2022-12-19T17:58:12.475Z,8.15
2022-12-19T18:00:41.852Z,8.57
2022-12-19T18:03:19.840Z,8.32
2022-12-19T18:05:48.647Z,7.35
2022-12-19T18:08:24.566Z,8.75
2022-12-19T18:10:56.585Z,12.07
2022-12-19T18:13:25.691Z,5.82
2022-12-19T18:15:57.085Z,11.10
2022-12-19T18:18:29.691Z,9.00
2022-12-19T18:20:59.989Z,11.57
2022-12-19T18:23:30.433Z,7.47
2022-12-19T18:26:02.317Z,8.48
2022-12-19T18:28:31.506Z,8.70
2022-12-19T18:31:02.598Z,9.93
2022-12-19T18:33:37.710Z,11.82
2022-12-19T18:36:07.287Z,9.32
2022-12-19T18:38:35.510Z,12.25
2022-12-19T18:41:05.172Z,9.82
2022-12-19T18:43:33.670Z,8.93
2022-12-19T18:46:01.917Z,9.57
2022-12-19T18:48:33.201Z,10.27
2022-12-19T18:51:02.324Z,10.68
2022-12-19T18:53:35.135Z,9.05
2022-12-19T18:56:06.980Z,10.38
2022-12-19T18:58:35.665Z,11.27
2022-12-19T19:01:05.089Z,8.27
2022-12-19T19:03:35.524Z,10.63
2022-12-19T19:06:05.761Z,11.35
2022-12-19T19:08:35.444Z,7.75
2022-12-19T19:11:05.116Z,8.77
2022-12-19T19:13:33.195Z,6.53
2022-12-19T19:16:02.900Z,7.22
2022-12-19T19:18:34.610Z,11.60
2022-12-19T19:21:03.502Z,10.32
2022-12-19T19:23:37.497Z,9.98
2022-12-19T19:26:08.315Z,11.20
2022-12-19T19:28:37.376Z,9.02
2022-12-19T19:31:09.380Z,7.88
2022-12-19T19:33:40.984Z,11.77
2022-12-19T19:36:12.760Z,8.23
2022-12-19T19:38:42.602Z,8.48
2022-12-19T19:41:12.697Z,9.65
2022-12-19T19:43:41.716Z,8.82
2022-12-19T19:46:10.444Z,8.38
2022-12-19T19:48:38.624Z,7.32
2022-12-19T19:51:06.963Z,9.05
2022-12-19T19:53:36.371Z,9.75
2022-12-19T19:56:05.255Z,9.43
2022-12-19T19:58:34.910Z,3.20
2022-12-19T20:01:08.639Z,13.88
2022-12-19T20:03:37.161Z,8.32
2022-12-19T20:06:05.882Z,8.60
2022-12-19T20:08:39.657Z,7.93
2022-12-19T20:11:11.106Z,8.55
2022-12-19T20:13:40.659Z,12.80
2022-12-19T20:16:11.808Z,7.88
2022-12-19T20:18:41.182Z,9.70
2022-12-19T20:21:13.156Z,4.03
2022-12-19T20:23:43.977Z,10.07
2022-12-19T20:26:13.465Z,6.45
2022-12-19T20:28:48.544Z,7.05
2022-12-19T20:31:18.522Z,6.88
2022-12-19T20:33:47.330Z,9.55
2022-12-19T20:36:15.745Z,3.67
2022-12-19T20:38:43.932Z,9.13
2022-12-19T20:41:12.328Z,9.10
2022-12-19T20:43:40.426Z,11.57
2022-12-19T20:46:12.363Z,5.47
2022-12-19T20:48:40.874Z,8.38
2022-12-19T20:51:10.049Z,8.45
2022-12-19T20:53:39.206Z,10.93
2022-12-19T20:56:09.427Z,9.10
2022-12-19T20:58:39.090Z,2.63
2022-12-19T21:01:10.343Z,8.65
2022-12-19T21:03:39.602Z,7.97
2022-12-19T21:06:09.634Z,11.27
2022-12-19T21:08:38.631Z,7.05
2022-12-19T21:11:08.544Z,8.68
2022-12-19T21:13:37.686Z,5.72
2022-12-19T21:16:08.761Z,5.57
2022-12-19T21:18:39.608Z,9.38
2022-12-19T21:21:09.217Z,4.90
2022-12-19T21:23:37.322Z,3.92
2022-12-19T21:26:05.900Z,8.57
2022-12-19T21:28:35.189Z,8.20
2022-12-19T21:31:05.854Z,5.82
2022-12-19T21:33:34.757Z,4.75
2022-12-19T21:36:12.439Z,8.55
2022-12-19T21:38:41.254Z,11.60
2022-12-19T21:41:09.860Z,7.45
2022-12-19T21:43:38.542Z,10.52
2022-12-19T21:46:11.239Z,6.57
2022-12-19T21:48:41.218Z,11.35
2022-12-19T21:51:12.184Z,8.73
2022-12-19T21:53:41.113Z,5.95
2022-12-19T21:56:19.468Z,5.05
2022-12-19T21:58:47.631Z,6.55
2022-12-19T22:01:15.877Z,9.32
2022-12-19T22:03:44.104Z,7.50
2022-12-19T22:06:25.661Z,3.08
2022-12-19T22:08:56.170Z,8.82
2022-12-19T22:11:24.960Z,8.50
2022-12-19T22:13:53.634Z,8.63
2022-12-19T22:16:22.173Z,8.48
2022-12-19T22:18:51.361Z,6.88
2022-12-19T22:21:22.360Z,9.50
2022-12-19T22:23:50.570Z,12.02
2022-12-19T22:26:20.315Z,9.30
2022-12-19T22:28:50.697Z,6.25
2022-12-19T22:31:21.268Z,8.25
2022-12-19T22:33:51.262Z,13.27
2022-12-19T22:36:27.585Z,4.55
2022-12-19T22:38:55.932Z,12.45
2022-12-19T22:41:24.061Z,4.60
2022-12-19T22:43:53.086Z,6.72
2022-12-19T22:46:23.561Z,8.57
2022-12-19T22:48:52.034Z,10.48
2022-12-19T22:51:21.700Z,6.25
2022-12-19T22:53:50.534Z,8.45
2022-12-19T22:56:20.043Z,8.18
2022-12-19T22:58:50.457Z,11.50
2022-12-19T23:01:22.091Z,9.63
2022-12-19T23:03:51.797Z,9.15
2022-12-19T23:06:23.131Z,7.85
2022-12-19T23:08:51.442Z,9.45
2022-12-19T23:11:21.567Z,8.02
2022-12-19T23:13:50.655Z,8.80
2022-12-19T23:16:19.303Z,6.75
2022-12-19T23:18:47.397Z,8.60
2022-12-19T23:21:18.464Z,8.18
2022-12-19T23:23:49.834Z,7.63
2022-12-19T23:26:20.391Z,9.82
2022-12-19T23:28:53.233Z,7.07
2022-12-19T23:31:21.466Z,11.05
2022-12-19T23:33:50.187Z,6.53
2022-12-19T23:36:32.354Z,8.23
2022-12-19T23:39:08.523Z,8.52
2022-12-19T23:41:36.573Z,9.40
2022-12-19T23:44:05.358Z,8.73
2022-12-19T23:46:33.699Z,7.63
2022-12-19T23:49:01.849Z,6.38
2022-12-19T23:51:30.614Z,8.63
2022-12-19T23:53:58.852Z,4.55
2022-12-19T23:56:30.313Z,8.38
2022-12-19T23:58:58.722Z,7.85
